createdAt,value
2019-06-01T00:00:53.029Z,32.40
2019-06-01T00:01:53.024Z,48.20
2019-06-01T00:02:56.329Z,32.30
2019-06-01T00:03:53.021Z,31.70
2019-06-01T00:04:53.022Z,33.00
2019-06-01T00:05:53.019Z,39.00
2019-06-01T00:06:53.018Z,31.10
2019-06-01T00:07:53.018Z,56.90
2019-06-01T00:08:53.017Z,32.60
2019-06-01T00:09:53.026Z,33.20
2019-06-01T00:10:53.014Z,32.10
2019-06-01T00:11:53.014Z,34.20
2019-06-01T00:12:53.014Z,31.60
2019-06-01T00:13:53.014Z,39.40
2019-06-01T00:14:53.016Z,39.60
2019-06-01T00:15:53.014Z,47.00
2019-06-01T00:16:53.010Z,40.30
2019-06-01T00:17:53.012Z,38.50
2019-06-01T00:18:53.010Z,32.70
2019-06-01T00:19:53.010Z,33.70
2019-06-01T00:20:53.010Z,38.90
2019-06-01T00:21:54.240Z,30.20
2019-06-01T00:22:53.004Z,40.70
2019-06-01T00:23:53.007Z,31.90
2019-06-01T00:24:53.005Z,41.00
2019-06-01T00:25:53.006Z,46.80
2019-06-01T00:26:53.003Z,51.50
2019-06-01T00:27:53.002Z,46.20
2019-06-01T00:28:53.108Z,59.20
2019-06-01T00:29:53.148Z,48.40
2019-06-01T00:30:53.000Z,42.80
2019-06-01T00:31:53.005Z,44.10
2019-06-01T00:32:52.998Z,30.50
2019-06-01T00:33:52.995Z,37.30
2019-06-01T00:34:52.994Z,36.60
2019-06-01T00:35:52.998Z,42.60
2019-06-01T00:36:52.994Z,40.60
2019-06-01T00:37:52.992Z,33.80
2019-06-01T00:38:52.993Z,30.60
2019-06-01T00:39:52.991Z,29.90
2019-06-01T00:40:52.993Z,34.90
2019-06-01T00:41:52.991Z,32.90
2019-06-01T00:42:52.985Z,36.30
2019-06-01T00:43:52.991Z,36.10
2019-06-01T00:44:52.988Z,32.00
2019-06-01T00:45:53.204Z,36.40
2019-06-01T00:46:52.983Z,42.80
2019-06-01T00:47:53.080Z,31.80
2019-06-01T00:48:54.216Z,37.80
2019-06-01T00:49:53.166Z,40.10
2019-06-01T00:50:53.301Z,41.00
2019-06-01T00:51:53.755Z,35.70
2019-06-01T00:52:53.407Z,37.40
2019-06-01T00:53:53.577Z,45.60
2019-06-01T00:54:53.627Z,43.50
2019-06-01T00:55:53.642Z,35.50
2019-06-01T00:56:53.881Z,46.50
2019-06-01T00:57:53.943Z,32.40
2019-06-01T00:58:53.932Z,39.70
2019-06-01T00:59:54.927Z,44.00
2019-06-01T01:00:53.764Z,52.50
2019-06-01T01:01:54.145Z,52.20
2019-06-01T01:02:54.307Z,46.50
2019-06-01T01:03:54.337Z,49.50
2019-06-01T01:04:52.978Z,55.90
2019-06-01T01:05:52.975Z,55.20
2019-06-01T01:06:52.970Z,54.00
2019-06-01T01:07:53.503Z,60.60
2019-06-01T01:08:53.055Z,56.80
2019-06-01T01:09:52.967Z,37.20
2019-06-01T01:10:53.111Z,32.60
2019-06-01T01:11:53.317Z,53.40
2019-06-01T01:12:53.197Z,39.80
2019-06-01T01:13:53.559Z,44.20
2019-06-01T01:14:53.352Z,40.40
2019-06-01T01:15:53.502Z,32.80
2019-06-01T01:16:54.151Z,45.20
2019-06-01T01:17:53.948Z,41.60
2019-06-01T01:18:53.836Z,55.10
2019-06-01T01:19:53.997Z,53.80
2019-06-01T01:20:54.064Z,57.00
2019-06-01T01:21:54.056Z,51.40
2019-06-01T01:22:54.292Z,52.60
2019-06-01T01:23:53.260Z,52.20
2019-06-01T01:24:52.952Z,52.30
2019-06-01T01:25:52.952Z,56.50
2019-06-01T01:26:52.947Z,49.20
2019-06-01T01:27:52.947Z,39.30
2019-06-01T01:28:53.051Z,43.50
2019-06-01T01:29:53.199Z,52.30
2019-06-01T01:31:08.356Z,67.20
2019-06-01T01:31:53.218Z,52.60
2019-06-01T01:32:53.574Z,51.30
2019-06-01T01:33:53.431Z,51.00
2019-06-01T01:34:53.739Z,55.70
2019-06-01T01:35:54.109Z,60.40
2019-06-01T01:36:54.234Z,58.40
2019-06-01T01:37:53.894Z,57.10
2019-06-01T01:38:54.252Z,54.50
2019-06-01T01:39:54.171Z,53.80
2019-06-01T01:40:54.114Z,65.30
2019-06-01T01:41:54.163Z,68.20
2019-06-01T01:42:52.930Z,62.80
2019-06-01T01:43:52.932Z,76.80
2019-06-01T01:44:52.927Z,80.50
2019-06-01T01:45:52.929Z,85.10
2019-06-01T01:46:52.924Z,63.10
2019-06-01T01:47:52.930Z,47.50
2019-06-01T01:48:54.067Z,54.80
2019-06-01T01:49:53.818Z,44.90
2019-06-01T01:50:52.923Z,56.80
2019-06-01T01:51:52.942Z,54.20
2019-06-01T01:52:52.918Z,50.20
2019-06-01T01:53:53.069Z,37.30
2019-06-01T01:54:52.919Z,58.50
2019-06-01T01:55:53.021Z,52.80
2019-06-01T01:56:54.048Z,43.70
2019-06-01T01:57:53.282Z,49.60
2019-06-01T01:58:54.222Z,53.80
2019-06-01T01:59:53.362Z,46.80
2019-06-01T02:00:54.539Z,48.40
2019-06-01T02:01:52.910Z,51.80
2019-06-01T02:02:54.006Z,51.10
2019-06-01T02:03:53.739Z,41.30
2019-06-01T02:04:53.684Z,43.30
2019-06-01T02:05:53.022Z,62.70
2019-06-01T02:06:53.922Z,72.20
2019-06-01T02:07:53.000Z,62.30
2019-06-01T02:08:53.525Z,55.50
2019-06-01T02:09:53.231Z,116.30
2019-06-01T02:10:53.325Z,73.50
2019-06-01T02:11:53.423Z,83.80
2019-06-01T02:12:53.426Z,77.30
2019-06-01T02:13:53.640Z,64.20
2019-06-01T02:14:53.680Z,53.20
2019-06-01T02:15:54.108Z,70.70
2019-06-01T02:16:53.955Z,72.10
2019-06-01T02:17:53.926Z,44.40
2019-06-01T02:18:54.317Z,50.50
2019-06-01T02:19:54.074Z,40.50
2019-06-01T02:20:54.250Z,40.80
2019-06-01T02:21:52.887Z,48.90
2019-06-01T02:22:53.074Z,46.30
2019-06-01T02:23:52.992Z,44.00
2019-06-01T02:24:53.774Z,51.90
2019-06-01T02:25:52.977Z,47.60
2019-06-01T02:26:53.134Z,72.00
2019-06-01T02:27:53.146Z,64.20
2019-06-01T02:28:53.212Z,52.70
2019-06-01T02:29:53.129Z,49.90
2019-06-01T02:30:53.947Z,55.90
2019-06-01T02:31:52.877Z,57.20
2019-06-01T02:32:53.854Z,64.30
2019-06-01T02:33:53.764Z,54.30
2019-06-01T02:34:54.284Z,41.40
2019-06-01T02:35:54.379Z,42.70
2019-06-01T02:36:54.302Z,42.30
2019-06-01T02:37:54.518Z,46.50
2019-06-01T02:38:54.510Z,41.10
2019-06-01T02:39:54.212Z,51.40
2019-06-01T02:40:54.747Z,38.90
2019-06-01T02:41:54.760Z,41.80
2019-06-01T02:42:52.862Z,38.60
2019-06-01T02:43:52.857Z,34.10
2019-06-01T02:44:52.859Z,37.50
2019-06-01T02:45:52.864Z,53.00
2019-06-01T02:46:52.853Z,44.80
2019-06-01T02:47:52.855Z,47.20
2019-06-01T02:48:52.855Z,47.00
2019-06-01T02:49:52.850Z,46.70
2019-06-01T02:50:52.847Z,43.70
2019-06-01T02:51:52.847Z,34.90
2019-06-01T02:52:52.848Z,39.10
2019-06-01T02:53:52.845Z,35.90
2019-06-01T02:54:52.842Z,48.90
2019-06-01T02:55:52.842Z,54.20
2019-06-01T02:56:52.842Z,51.50
2019-06-01T02:57:52.833Z,43.90
2019-06-01T02:58:52.839Z,38.30
2019-06-01T02:59:52.836Z,42.10
2019-06-01T03:00:52.837Z,39.80
2019-06-01T03:01:57.257Z,49.10
2019-06-01T03:02:52.834Z,43.10
2019-06-01T03:03:52.830Z,42.70
2019-06-01T03:04:52.833Z,44.40
2019-06-01T03:05:52.830Z,50.20
2019-06-01T03:06:52.827Z,42.00
2019-06-01T03:07:52.827Z,45.10
2019-06-01T03:08:52.825Z,54.90
2019-06-01T03:09:52.825Z,48.10
2019-06-01T03:10:52.822Z,45.00
2019-06-01T03:11:52.822Z,43.40
2019-06-01T03:12:52.823Z,46.00
2019-06-01T03:13:52.825Z,43.60
2019-06-01T03:14:52.824Z,45.10
2019-06-01T03:15:52.813Z,44.90
2019-06-01T03:16:52.815Z,49.50
2019-06-01T03:17:52.838Z,54.70
2019-06-01T03:18:52.822Z,45.70
2019-06-01T03:19:52.815Z,44.30
2019-06-01T03:20:52.811Z,50.70
2019-06-01T03:21:52.809Z,51.10
2019-06-01T03:22:52.808Z,56.10
2019-06-01T03:23:52.804Z,52.20
2019-06-01T03:24:52.804Z,45.10
2019-06-01T03:25:52.803Z,42.80
2019-06-01T03:26:52.803Z,42.60
2019-06-01T03:27:52.804Z,44.60
2019-06-01T03:28:52.797Z,44.50
2019-06-01T03:29:52.799Z,43.90
2019-06-01T03:30:52.803Z,43.20
2019-06-01T03:31:52.796Z,46.20
2019-06-01T03:32:52.795Z,40.60
2019-06-01T03:33:52.798Z,41.50
2019-06-01T03:34:52.792Z,40.90
2019-06-01T03:35:52.791Z,46.90
2019-06-01T03:36:56.022Z,45.10
2019-06-01T03:37:52.791Z,43.10
2019-06-01T03:38:52.786Z,43.50
2019-06-01T03:39:52.785Z,38.70
2019-06-01T03:40:52.787Z,34.80
2019-06-01T03:41:52.790Z,39.80
2019-06-01T03:42:52.783Z,35.00
2019-06-01T03:43:52.783Z,36.60
2019-06-01T03:44:52.783Z,33.40
2019-06-01T03:45:52.781Z,33.50
2019-06-01T03:46:52.781Z,33.30
2019-06-01T03:47:52.778Z,31.30
2019-06-01T03:48:52.779Z,35.90
2019-06-01T03:49:52.775Z,45.30
2019-06-01T03:50:52.774Z,35.50
2019-06-01T03:51:52.773Z,35.80
2019-06-01T03:52:52.771Z,36.00
2019-06-01T03:53:52.769Z,31.70
2019-06-01T03:54:52.772Z,34.90
2019-06-01T03:55:52.769Z,35.70
2019-06-01T03:56:52.770Z,35.40
2019-06-01T03:57:52.769Z,32.00
2019-06-01T03:58:52.767Z,30.70
2019-06-01T03:59:52.763Z,27.90
2019-06-01T04:00:52.847Z,26.20
2019-06-01T04:01:52.765Z,28.50
2019-06-01T04:02:52.762Z,27.50
2019-06-01T04:03:52.760Z,27.20
2019-06-01T04:04:52.760Z,25.10
2019-06-01T04:05:52.759Z,25.10
2019-06-01T04:06:52.777Z,25.20
2019-06-01T04:07:52.761Z,26.00
2019-06-01T04:08:52.765Z,24.10
2019-06-01T04:09:52.754Z,24.30
2019-06-01T04:10:52.757Z,25.10
2019-06-01T04:11:52.752Z,25.70
2019-06-01T04:12:52.756Z,21.90
2019-06-01T04:13:52.757Z,22.50
2019-06-01T04:14:52.763Z,24.90
2019-06-01T04:15:52.756Z,24.50
2019-06-01T04:16:52.764Z,26.30
2019-06-01T04:17:52.757Z,27.60
2019-06-01T04:18:52.752Z,26.00
2019-06-01T04:19:52.756Z,26.00
2019-06-01T04:20:52.759Z,24.20
2019-06-01T04:21:52.764Z,24.30
2019-06-01T04:22:52.764Z,23.90
2019-06-01T04:23:52.756Z,22.50
2019-06-01T04:24:52.761Z,21.80
2019-06-01T04:25:52.764Z,21.40
2019-06-01T04:26:52.752Z,20.10
2019-06-01T04:27:52.754Z,20.20
2019-06-01T04:28:52.751Z,21.20
2019-06-01T04:29:52.762Z,20.40
2019-06-01T04:30:52.761Z,21.90
2019-06-01T04:31:52.750Z,22.30
2019-06-01T04:32:52.755Z,23.40
2019-06-01T04:33:52.755Z,21.30
2019-06-01T04:34:52.751Z,21.30
2019-06-01T04:35:52.759Z,20.60
2019-06-01T04:36:52.756Z,20.70
2019-06-01T04:37:52.764Z,19.80
2019-06-01T04:38:52.761Z,19.80
2019-06-01T04:39:52.758Z,20.30
2019-06-01T04:40:52.763Z,20.40
2019-06-01T04:41:52.761Z,20.30
2019-06-01T04:42:52.763Z,19.60
2019-06-01T04:43:52.768Z,18.70
2019-06-01T04:44:52.765Z,19.80
2019-06-01T04:45:52.765Z,19.30
2019-06-01T04:46:52.767Z,21.20
2019-06-01T04:47:52.771Z,20.30
2019-06-01T04:48:52.772Z,20.20
2019-06-01T04:49:52.768Z,19.20
2019-06-01T04:50:52.769Z,19.20
2019-06-01T04:51:52.771Z,18.40
2019-06-01T04:52:52.776Z,18.00
2019-06-01T04:53:52.778Z,18.70
2019-06-01T04:54:52.777Z,19.10
2019-06-01T04:55:52.776Z,19.20
2019-06-01T04:56:52.781Z,19.20
2019-06-01T04:57:52.781Z,18.90
2019-06-01T04:58:52.785Z,19.00
2019-06-01T04:59:52.786Z,18.20
2019-06-01T05:00:52.787Z,18.90
2019-06-01T05:01:52.789Z,18.80
2019-06-01T05:03:04.908Z,18.70
2019-06-01T05:03:52.793Z,17.70
2019-06-01T05:04:52.800Z,18.30
2019-06-01T05:05:52.801Z,17.50
2019-06-01T05:06:52.800Z,18.80
2019-06-01T05:07:52.806Z,17.50
2019-06-01T05:08:52.818Z,18.40
2019-06-01T05:09:52.812Z,17.50
2019-06-01T05:10:52.814Z,18.40
2019-06-01T05:11:52.816Z,17.20
2019-06-01T05:12:52.819Z,17.40
2019-06-01T05:13:52.821Z,16.80
2019-06-01T05:14:52.825Z,16.50
2019-06-01T05:15:52.832Z,16.90
2019-06-01T05:16:52.834Z,16.20
2019-06-01T05:17:52.835Z,17.10
2019-06-01T05:18:52.840Z,16.90
2019-06-01T05:19:52.843Z,16.80
2019-06-01T05:20:52.844Z,17.30
2019-06-01T05:21:52.853Z,17.80
2019-06-01T05:22:52.852Z,17.00
2019-06-01T05:23:52.866Z,17.50
2019-06-01T05:24:52.861Z,18.80
2019-06-01T05:25:53.423Z,19.10
2019-06-01T05:26:52.867Z,19.60
2019-06-01T05:27:52.872Z,19.40
2019-06-01T05:28:52.875Z,19.70
2019-06-01T05:29:52.879Z,19.70
2019-06-01T05:30:52.881Z,20.10
2019-06-01T05:31:52.886Z,21.60
2019-06-01T05:32:52.890Z,21.20
2019-06-01T05:33:52.898Z,21.50
2019-06-01T05:34:52.895Z,22.00
2019-06-01T05:35:52.893Z,21.10
2019-06-01T05:36:52.903Z,21.10
2019-06-01T05:37:52.905Z,23.20
2019-06-01T05:38:52.912Z,22.70
2019-06-01T05:39:52.913Z,21.80
2019-06-01T05:40:52.918Z,22.60
2019-06-01T05:41:52.917Z,21.50
2019-06-01T05:42:52.922Z,22.40
2019-06-01T05:43:52.925Z,22.50
2019-06-01T05:44:52.928Z,23.80
2019-06-01T05:45:52.929Z,23.60
2019-06-01T05:46:52.932Z,23.20
2019-06-01T05:47:52.938Z,21.90
2019-06-01T05:48:52.946Z,22.40
2019-06-01T05:49:52.945Z,22.10
2019-06-01T05:50:52.948Z,23.40
2019-06-01T05:51:52.946Z,23.70
2019-06-01T05:52:52.950Z,22.20
2019-06-01T05:53:52.950Z,22.90
2019-06-01T05:54:52.961Z,21.40
2019-06-01T05:55:52.960Z,23.10
2019-06-01T05:56:52.960Z,23.70
2019-06-01T05:57:52.964Z,24.10
2019-06-01T05:58:52.965Z,22.90
2019-06-01T05:59:52.968Z,23.40
2019-06-01T06:00:52.971Z,21.90
2019-06-01T06:01:52.974Z,21.60
2019-06-01T06:02:52.976Z,23.50
2019-06-01T06:03:52.977Z,22.50
2019-06-01T06:04:54.191Z,23.90
2019-06-01T06:05:52.984Z,21.90
2019-06-01T06:06:52.987Z,23.90
2019-06-01T06:07:52.990Z,21.40
2019-06-01T06:08:52.992Z,20.50
2019-06-01T06:09:52.994Z,22.90
2019-06-01T06:10:52.996Z,23.20
2019-06-01T06:11:53.975Z,22.20
2019-06-01T06:12:53.001Z,22.80
2019-06-01T06:13:53.005Z,23.90
2019-06-01T06:14:53.005Z,24.50
2019-06-01T06:15:53.008Z,24.50
2019-06-01T06:16:53.009Z,24.70
2019-06-01T06:17:53.017Z,23.10
2019-06-01T06:18:53.015Z,22.40
2019-06-01T06:19:53.018Z,22.10
2019-06-01T06:20:53.024Z,21.20
2019-06-01T06:21:53.033Z,22.50
2019-06-01T06:22:53.028Z,22.50
2019-06-01T06:23:53.025Z,22.30
2019-06-01T06:24:53.028Z,22.80
2019-06-01T06:25:53.031Z,20.30
2019-06-01T06:26:53.035Z,21.30
2019-06-01T06:27:53.035Z,21.00
2019-06-01T06:28:53.039Z,19.00
2019-06-01T06:29:53.043Z,17.90
2019-06-01T06:30:53.044Z,18.70
2019-06-01T06:31:53.049Z,17.40
2019-06-01T06:32:53.055Z,16.20
2019-06-01T06:33:56.494Z,16.00
2019-06-01T06:34:53.066Z,14.30
2019-06-01T06:35:53.059Z,14.50
2019-06-01T06:36:53.063Z,14.50
2019-06-01T06:37:53.069Z,13.00
2019-06-01T06:38:53.071Z,13.70
2019-06-01T06:39:53.078Z,13.30
2019-06-01T06:40:53.079Z,13.20
2019-06-01T06:41:53.086Z,14.00
2019-06-01T06:42:53.089Z,12.70
2019-06-01T06:43:53.091Z,12.60
2019-06-01T06:44:53.103Z,12.20
2019-06-01T06:45:53.107Z,12.00
2019-06-01T06:46:53.106Z,11.10
2019-06-01T06:47:53.110Z,11.20
2019-06-01T06:48:53.115Z,11.40
2019-06-01T06:49:53.130Z,10.40
2019-06-01T06:50:53.136Z,10.30
2019-06-01T06:51:53.133Z,10.30
2019-06-01T06:52:53.138Z,10.70
2019-06-01T06:53:53.144Z,10.90
2019-06-01T06:54:53.158Z,11.70
2019-06-01T06:55:53.155Z,11.10
2019-06-01T06:56:53.162Z,10.30
2019-06-01T06:57:53.168Z,10.20
2019-06-01T06:58:53.179Z,10.20
2019-06-01T06:59:53.179Z,9.80
2019-06-01T07:00:53.187Z,9.90
2019-06-01T07:01:53.200Z,10.20
2019-06-01T07:02:53.197Z,9.90
2019-06-01T07:03:53.214Z,9.90
2019-06-01T07:04:53.210Z,10.00
2019-06-01T07:05:53.226Z,10.10
2019-06-01T07:06:53.223Z,9.80
2019-06-01T07:07:53.230Z,9.60
2019-06-01T07:08:53.237Z,9.00
2019-06-01T07:09:53.265Z,9.60
2019-06-01T07:10:53.252Z,9.10
2019-06-01T07:11:53.318Z,9.10
2019-06-01T07:12:53.264Z,9.70
2019-06-01T07:13:53.285Z,8.70
2019-06-01T07:14:53.277Z,8.80
2019-06-01T07:15:53.285Z,8.40
2019-06-01T07:16:53.293Z,8.40
2019-06-01T07:17:53.307Z,9.50
2019-06-01T07:18:53.307Z,9.40
2019-06-01T07:19:53.327Z,8.30
2019-06-01T07:20:53.335Z,8.50
2019-06-01T07:21:53.331Z,8.30
2019-06-01T07:22:53.335Z,8.00
2019-06-01T07:23:53.370Z,8.30
2019-06-01T07:24:53.369Z,8.20
2019-06-01T07:25:53.374Z,8.20
2019-06-01T07:26:53.372Z,11.40
2019-06-01T07:27:53.383Z,8.10
2019-06-01T07:28:53.385Z,8.60
2019-06-01T07:29:53.393Z,8.60
2019-06-01T07:30:53.399Z,8.60
2019-06-01T07:31:53.407Z,8.00
2019-06-01T07:32:53.415Z,8.00
2019-06-01T07:33:53.425Z,7.70
2019-06-01T07:34:53.431Z,7.40
2019-06-01T07:35:53.439Z,7.90
2019-06-01T07:36:53.460Z,8.10
2019-06-01T07:37:53.458Z,8.20
2019-06-01T07:38:53.467Z,7.80
2019-06-01T07:39:53.472Z,8.30
2019-06-01T07:40:53.484Z,8.60
2019-06-01T07:41:53.502Z,7.80
2019-06-01T07:42:53.503Z,7.50
2019-06-01T07:43:53.508Z,8.00
2019-06-01T07:44:53.517Z,8.80
2019-06-01T07:45:53.525Z,7.80
2019-06-01T07:46:53.534Z,7.70
2019-06-01T07:47:53.545Z,7.30
2019-06-01T07:48:53.552Z,8.10
2019-06-01T07:49:53.565Z,8.00
2019-06-01T07:50:53.568Z,8.00
2019-06-01T07:51:53.630Z,8.00
2019-06-01T07:52:53.585Z,8.00
2019-06-01T07:53:53.592Z,7.70
2019-06-01T07:54:53.599Z,7.60
2019-06-01T07:55:53.610Z,7.20
2019-06-01T07:56:53.616Z,8.60
2019-06-01T07:57:53.625Z,8.00
2019-06-01T07:58:53.633Z,7.30
2019-06-01T07:59:53.659Z,8.00
2019-06-01T08:00:53.652Z,8.00
2019-06-01T08:01:53.661Z,7.50
2019-06-01T08:02:53.667Z,7.40
2019-06-01T08:03:53.680Z,7.40
2019-06-01T08:04:54.809Z,7.20
2019-06-01T08:05:53.694Z,7.10
2019-06-01T08:06:53.707Z,7.40
2019-06-01T08:07:53.714Z,7.60
2019-06-01T08:08:53.721Z,7.40
2019-06-01T08:09:53.735Z,8.40
2019-06-01T08:10:53.743Z,6.80
2019-06-01T08:11:53.754Z,7.20
2019-06-01T08:12:53.759Z,9.60
2019-06-01T08:13:53.769Z,6.60
2019-06-01T08:14:53.782Z,6.40
2019-06-01T08:15:53.785Z,6.90
2019-06-01T08:16:53.792Z,6.30
2019-06-01T08:17:53.802Z,7.10
2019-06-01T08:18:53.810Z,6.20
2019-06-01T08:19:53.818Z,6.10
2019-06-01T08:20:53.825Z,6.30
2019-06-01T08:21:53.909Z,5.90
2019-06-01T08:22:53.842Z,5.90
2019-06-01T08:23:53.855Z,5.70
2019-06-01T08:24:53.863Z,7.00
2019-06-01T08:25:53.874Z,5.70
2019-06-01T08:26:53.884Z,5.70
2019-06-01T08:27:53.906Z,5.40
2019-06-01T08:28:53.902Z,6.00
2019-06-01T08:29:53.913Z,5.30
2019-06-01T08:30:53.921Z,5.90
2019-06-01T08:31:55.937Z,5.20
2019-06-01T08:32:53.936Z,5.20
2019-06-01T08:33:53.945Z,5.50
2019-06-01T08:35:07.194Z,6.30
2019-06-01T08:35:53.963Z,5.50
2019-06-01T08:36:53.972Z,5.30
2019-06-01T08:37:53.981Z,5.30
2019-06-01T08:38:53.991Z,5.30
2019-06-01T08:39:53.998Z,5.30
2019-06-01T08:40:54.009Z,5.00
2019-06-01T08:41:54.019Z,5.00
2019-06-01T08:42:54.059Z,4.70
2019-06-01T08:43:54.045Z,4.60
2019-06-01T08:44:54.045Z,4.60
2019-06-01T08:45:54.057Z,4.70
2019-06-01T08:46:54.066Z,5.90
2019-06-01T08:47:54.073Z,4.40
2019-06-01T08:48:54.082Z,4.70
2019-06-01T08:49:54.096Z,4.30
2019-06-01T08:50:54.101Z,4.20
2019-06-01T08:51:54.113Z,4.90
2019-06-01T08:52:54.122Z,6.20
2019-06-01T08:53:54.132Z,6.60
2019-06-01T08:54:54.130Z,5.00
2019-06-01T08:55:54.143Z,5.60
2019-06-01T08:56:54.153Z,5.70
2019-06-01T08:57:54.171Z,4.20
2019-06-01T08:58:54.174Z,4.30
2019-06-01T08:59:54.181Z,5.00
2019-06-01T09:00:54.190Z,4.80
2019-06-01T09:01:54.200Z,3.90
2019-06-01T09:02:54.210Z,3.70
2019-06-01T09:03:54.218Z,4.30
2019-06-01T09:04:54.234Z,3.60
2019-06-01T09:05:54.235Z,3.80
2019-06-01T09:06:54.243Z,3.80
2019-06-01T09:07:54.256Z,3.70
2019-06-01T09:08:54.265Z,3.50
2019-06-01T09:09:54.265Z,3.50
2019-06-01T09:10:54.281Z,4.00
2019-06-01T09:11:54.281Z,4.00
2019-06-01T09:12:54.298Z,4.50
2019-06-01T09:13:54.298Z,5.80
2019-06-01T09:14:54.301Z,3.60
2019-06-01T09:15:54.355Z,4.00
2019-06-01T09:16:54.313Z,3.50
2019-06-01T09:17:54.330Z,3.90
2019-06-01T09:18:54.336Z,3.60
2019-06-01T09:19:54.332Z,3.90
2019-06-01T09:20:54.339Z,4.10
2019-06-01T09:21:54.348Z,4.40
2019-06-01T09:22:54.351Z,3.70
2019-06-01T09:23:54.357Z,4.10
2019-06-01T09:24:54.370Z,4.70
2019-06-01T09:25:54.371Z,4.70
2019-06-01T09:26:54.373Z,4.30
2019-06-01T09:27:54.382Z,4.40
2019-06-01T09:28:54.387Z,4.20
2019-06-01T09:29:54.392Z,5.20
2019-06-01T09:30:54.399Z,4.40
2019-06-01T09:31:54.403Z,4.00
2019-06-01T09:32:54.411Z,3.80
2019-06-01T09:33:54.416Z,4.40
2019-06-01T09:34:54.419Z,4.50
2019-06-01T09:35:56.329Z,4.50
2019-06-01T09:36:55.672Z,4.60
2019-06-01T09:37:54.439Z,6.20
2019-06-01T09:38:54.442Z,4.90
2019-06-01T09:39:54.442Z,4.10
2019-06-01T09:40:54.449Z,4.40
2019-06-01T09:41:54.454Z,5.10
2019-06-01T09:42:54.461Z,4.60
2019-06-01T09:43:54.467Z,4.30
2019-06-01T09:44:54.468Z,5.80
2019-06-01T09:45:54.473Z,5.10
2019-06-01T09:46:54.477Z,4.60
2019-06-01T09:47:54.486Z,5.70
2019-06-01T09:48:54.487Z,4.80
2019-06-01T09:49:54.494Z,4.60
2019-06-01T09:50:54.495Z,5.30
2019-06-01T09:51:54.505Z,4.70
2019-06-01T09:52:54.507Z,5.60
2019-06-01T09:53:54.515Z,5.10
2019-06-01T09:54:54.523Z,6.50
2019-06-01T09:55:54.522Z,4.70
2019-06-01T09:56:54.529Z,6.20
2019-06-01T09:57:54.533Z,5.70
2019-06-01T09:58:54.533Z,4.50
2019-06-01T09:59:54.539Z,4.90
2019-06-01T10:00:54.612Z,5.30
2019-06-01T10:01:54.549Z,4.90
2019-06-01T10:02:54.553Z,5.80
2019-06-01T10:03:54.560Z,4.80
2019-06-01T10:04:54.564Z,4.80
2019-06-01T10:06:01.964Z,4.90
2019-06-01T10:06:54.573Z,4.70
2019-06-01T10:07:54.575Z,6.10
2019-06-01T10:08:54.581Z,5.50
2019-06-01T10:09:54.587Z,5.50
2019-06-01T10:10:54.591Z,6.10
2019-06-01T10:11:54.596Z,4.80
2019-06-01T10:12:54.602Z,4.60
2019-06-01T10:13:54.605Z,5.40
2019-06-01T10:14:54.608Z,4.90
2019-06-01T10:15:54.613Z,4.80
2019-06-01T10:16:54.629Z,4.50
2019-06-01T10:17:54.620Z,5.40
2019-06-01T10:18:54.629Z,4.50
2019-06-01T10:19:54.631Z,4.40
2019-06-01T10:20:54.635Z,3.90
2019-06-01T10:21:54.640Z,5.80
2019-06-01T10:22:54.646Z,5.80
2019-06-01T10:23:54.661Z,5.40
2019-06-01T10:24:54.653Z,5.50
2019-06-01T10:25:54.662Z,5.70
2019-06-01T10:26:54.662Z,4.80
2019-06-01T10:27:54.669Z,5.60
2019-06-01T10:28:54.671Z,4.70
2019-06-01T10:29:54.680Z,5.00
2019-06-01T10:30:54.681Z,4.10
2019-06-01T10:31:54.685Z,6.40
2019-06-01T10:32:54.696Z,4.10
2019-06-01T10:33:54.695Z,4.80
2019-06-01T10:34:54.703Z,4.70
2019-06-01T10:35:54.702Z,4.00
2019-06-01T10:36:54.707Z,5.60
2019-06-01T10:37:54.711Z,4.20
2019-06-01T10:38:54.718Z,4.50
2019-06-01T10:39:54.720Z,4.60
2019-06-01T10:40:54.727Z,5.10
2019-06-01T10:41:54.734Z,6.80
2019-06-01T10:42:54.740Z,5.00
2019-06-01T10:43:54.737Z,4.30
2019-06-01T10:44:54.752Z,4.20
2019-06-01T10:45:54.748Z,5.80
2019-06-01T10:46:54.750Z,4.00
2019-06-01T10:47:54.755Z,4.10
2019-06-01T10:48:54.765Z,6.00
2019-06-01T10:49:54.764Z,5.30
2019-06-01T10:50:54.768Z,4.20
2019-06-01T10:51:54.770Z,4.10
2019-06-01T10:52:54.777Z,4.10
2019-06-01T10:53:54.782Z,4.10
2019-06-01T10:54:54.785Z,4.50
2019-06-01T10:55:54.788Z,4.10
2019-06-01T10:56:54.793Z,3.90
2019-06-01T10:57:54.803Z,5.20
2019-06-01T10:58:59.998Z,5.10
2019-06-01T10:59:54.809Z,3.90
2019-06-01T11:00:54.814Z,4.50
2019-06-01T11:01:54.817Z,4.20
2019-06-01T11:02:54.823Z,4.60
2019-06-01T11:03:54.824Z,3.90
2019-06-01T11:04:54.829Z,4.30
2019-06-01T11:05:54.834Z,4.50
2019-06-01T11:06:54.837Z,4.30
2019-06-01T11:07:54.844Z,4.60
2019-06-01T11:08:54.852Z,3.30
2019-06-01T11:09:54.853Z,3.10
2019-06-01T11:10:54.862Z,3.00
2019-06-01T11:11:54.858Z,2.70
2019-06-01T11:12:54.864Z,3.70
2019-06-01T11:13:54.871Z,4.00
2019-06-01T11:14:54.874Z,3.50
2019-06-01T11:15:54.877Z,4.00
2019-06-01T11:16:56.519Z,3.20
2019-06-01T11:17:54.884Z,2.90
2019-06-01T11:18:54.887Z,3.90
2019-06-01T11:19:54.895Z,3.80
2019-06-01T11:20:54.899Z,4.20
2019-06-01T11:21:54.901Z,2.90
2019-06-01T11:22:54.904Z,3.00
2019-06-01T11:23:54.910Z,3.80
2019-06-01T11:24:54.918Z,2.80
2019-06-01T11:25:54.920Z,2.80
2019-06-01T11:26:54.923Z,3.90
2019-06-01T11:27:54.928Z,3.00
2019-06-01T11:28:54.936Z,4.30
2019-06-01T11:29:54.938Z,2.50
2019-06-01T11:30:54.940Z,3.10
2019-06-01T11:31:54.950Z,4.10
2019-06-01T11:32:54.950Z,2.20
2019-06-01T11:33:54.959Z,2.60
2019-06-01T11:34:54.960Z,2.90
2019-06-01T11:35:54.965Z,2.80
2019-06-01T11:37:04.979Z,2.60
2019-06-01T11:37:54.976Z,5.60
2019-06-01T11:38:54.981Z,3.30
2019-06-01T11:39:54.980Z,2.40
2019-06-01T11:40:55.004Z,4.20
2019-06-01T11:41:54.995Z,3.50
2019-06-01T11:42:54.996Z,3.00
2019-06-01T11:43:55.000Z,2.30
2019-06-01T11:44:55.006Z,3.20
2019-06-01T11:45:55.007Z,3.00
2019-06-01T11:46:55.013Z,2.80
2019-06-01T11:47:55.019Z,2.40
2019-06-01T11:48:55.031Z,4.60
2019-06-01T11:49:55.025Z,2.90
2019-06-01T11:50:55.030Z,2.50
2019-06-01T11:51:55.035Z,2.10
2019-06-01T11:52:55.041Z,3.20
2019-06-01T11:53:55.042Z,3.60
2019-06-01T11:54:55.048Z,2.50
2019-06-01T11:55:55.054Z,2.20
2019-06-01T11:56:55.058Z,2.20
2019-06-01T11:57:55.062Z,3.90
2019-06-01T11:58:55.065Z,2.20
2019-06-01T11:59:55.070Z,3.00
2019-06-01T12:00:55.074Z,3.50
2019-06-01T12:01:55.078Z,2.30
2019-06-01T12:02:55.085Z,2.20
2019-06-01T12:03:55.088Z,2.10
2019-06-01T12:04:55.097Z,3.20
2019-06-01T12:05:55.099Z,2.80
2019-06-01T12:06:55.103Z,2.10
2019-06-01T12:07:55.113Z,2.10
2019-06-01T12:08:55.116Z,2.40
2019-06-01T12:09:55.114Z,2.20
2019-06-01T12:10:55.120Z,2.50
2019-06-01T12:11:55.123Z,2.30
2019-06-01T12:12:55.129Z,2.80
2019-06-01T12:13:55.137Z,2.30
2019-06-01T12:14:55.139Z,3.80
2019-06-01T12:15:55.141Z,4.50
2019-06-01T12:16:55.145Z,3.00
2019-06-01T12:17:55.157Z,2.70
2019-06-01T12:18:55.158Z,4.00
2019-06-01T12:19:55.163Z,2.20
2019-06-01T12:20:55.167Z,2.50
2019-06-01T12:21:55.169Z,2.30
2019-06-01T12:22:55.181Z,2.50
2019-06-01T12:23:55.182Z,2.80
2019-06-01T12:24:55.183Z,2.30
2019-06-01T12:25:55.187Z,4.40
2019-06-01T12:26:55.190Z,2.50
2019-06-01T12:27:55.194Z,2.40
2019-06-01T12:28:55.199Z,2.90
2019-06-01T12:29:55.209Z,2.30
2019-06-01T12:30:55.209Z,3.00
2019-06-01T12:31:55.214Z,2.60
2019-06-01T12:32:55.216Z,2.50
2019-06-01T12:33:55.224Z,2.20
2019-06-01T12:34:55.236Z,2.20
2019-06-01T12:35:55.234Z,2.60
2019-06-01T12:36:55.329Z,2.40
2019-06-01T12:38:05.390Z,2.20
2019-06-01T12:38:55.246Z,2.20
2019-06-01T12:39:55.348Z,3.50
2019-06-01T12:40:55.253Z,2.60
2019-06-01T12:41:55.262Z,2.90
2019-06-01T12:42:55.261Z,5.50
2019-06-01T12:43:55.266Z,3.00
2019-06-01T12:44:55.272Z,2.60
2019-06-01T12:46:06.742Z,2.20
2019-06-01T12:46:55.281Z,2.30
2019-06-01T12:47:58.543Z,2.40
2019-06-01T12:48:55.289Z,2.40
2019-06-01T12:49:55.292Z,2.60
2019-06-01T12:50:55.295Z,2.50
2019-06-01T12:51:55.301Z,3.70
2019-06-01T12:52:55.310Z,2.30
2019-06-01T12:53:55.308Z,2.90
2019-06-01T12:54:55.315Z,2.00
2019-06-01T12:55:55.321Z,2.40
2019-06-01T12:56:55.326Z,3.10
2019-06-01T12:57:55.330Z,2.20
2019-06-01T12:58:55.337Z,2.20
2019-06-01T12:59:55.337Z,2.00
2019-06-01T13:00:55.342Z,2.90
2019-06-01T13:01:55.351Z,2.20
2019-06-01T13:03:06.642Z,3.00
2019-06-01T13:03:55.356Z,3.00
2019-06-01T13:04:55.370Z,3.20